South Franklin, Vermont
Current Conditions -  °F | °C
As of 11:15 AM on Saturday 22 Nov 2014 (Local Time) from KFSO Reporting Station
Scattered Clouds Scattered Clouds  
Wind Chill: 21°   Ceiling: Unl
Heat Index: 30°   Visibility: 10mi
Dew Point: 15°   Wind: 12mph
Humidity: 53%   Direction: 190°S
Pressure: 30.09"   Gusts: 24mph
Location:  44.8764°N, 72.758°W
Report Text: KFSO 221615Z AUTO 19010G21KT 170V230 10SM SCT070 M01/M10 A3009 RMK AO2 T10111096
Loading
Personal Weather Stations






























Interactive Weather Map New forecast layout! Learn more

10-Day Weather Forecast

Advertisements
Track Severe Weather on mobile